Time;durP1;ratioP1;P1;durP2;ratioP2;P2;SDS_P1;SDS_P2;PMS_P1;PMS_P2;Temp;Humidity;BMP_temperature;BMP_pressure;BME280_temperature;BME280_humidity;BME280_pressure;Samples;Min_cycle;Max_cycle;Signal;HPM_P1;HPM_P2
2021/05/15 00:02:08;;;;;;;0.10;0.10;;;10.40;99.90;;;;;;5055707;28;20044;-83
2021/05/15 00:04:35;;;;;;;0.20;0.10;;;10.50;99.90;;;;;;5050337;28;20035;-82
2021/05/15 00:07:01;;;;;;;0.08;0.08;;;10.40;99.90;;;;;;5064965;28;20721;-83
2021/05/15 00:09:27;;;;;;;0.20;0.20;;;10.50;99.90;;;;;;5060777;28;20154;-83
2021/05/15 00:11:54;;;;;;;2.08;0.35;;;10.30;99.90;;;;;;5057447;28;20028;-83
2021/05/15 00:14:20;;;;;;;0.10;0.10;;;10.30;99.90;;;;;;5068766;28;20059;-82
2021/05/15 00:16:47;;;;;;;0.10;0.10;;;10.50;99.90;;;;;;5057031;28;20221;-83
2021/05/15 00:19:13;;;;;;;0.00;0.00;;;10.50;99.90;;;;;;5084330;28;20055;-84
2021/05/15 00:21:40;;;;;;;0.00;0.00;;;10.50;99.90;;;;;;5076341;28;20081;-84
2021/05/15 00:24:07;;;;;;;0.10;0.10;;;10.50;99.90;;;;;;5079353;28;20111;-83
2021/05/15 00:26:34;;;;;;;0.20;0.20;;;10.50;99.90;;;;;;5080242;28;20024;-83
2021/05/15 00:29:00;;;;;;;0.15;0.15;;;10.40;99.90;;;;;;5075922;28;20668;-83
2021/05/15 00:31:27;;;;;;;0.10;0.10;;;10.40;99.90;;;;;;5073209;28;20418;-83
2021/05/15 00:33:53;;;;;;;0.07;0.07;;;10.40;99.90;;;;;;5076319;28;20031;-83
2021/05/15 00:36:19;;;;;;;0.10;0.10;;;10.40;99.90;;;;;;5071849;28;20278;-83
2021/05/15 00:38:46;;;;;;;0.10;0.10;;;10.30;99.90;;;;;;5073623;28;20031;-83
2021/05/15 00:41:23;;;;;;;0.20;0.20;;;10.30;99.90;;;;;;5069017;28;20040;-83
2021/05/15 00:44:00;;;;;;;0.40;0.40;;;10.30;99.90;;;;;;5070289;28;20563;-83
2021/05/15 00:46:27;;;;;;;0.05;0.05;;;10.20;99.90;;;;;;5050891;28;20025;-83
2021/05/15 00:48:54;;;;;;;0.10;0.10;;;10.20;99.90;;;;;;5067487;28;20024;-84
2021/05/15 00:51:21;;;;;;;0.10;0.10;;;10.30;99.90;;;;;;5067756;28;20028;-84
2021/05/15 00:53:47;;;;;;;;;;;10.30;99.90;;;;;;5075407;28;20024;-84
2021/05/15 00:56:14;;;;;;;0.13;0.13;;;10.20;99.90;;;;;;5068517;28;19908;-83
2021/05/15 00:58:41;;;;;;;0.10;0.10;;;10.10;99.90;;;;;;5087709;28;20082;-83
2021/05/15 01:01:08;;;;;;;0.00;0.00;;;10.00;99.90;;;;;;5080205;28;20025;-83
2021/05/15 01:03:34;;;;;;;0.00;0.00;;;9.90;99.90;;;;;;5071713;28;20036;-83
2021/05/15 01:06:04;;;;;;;0.10;0.10;;;9.90;99.90;;;;;;5082445;28;20052;-84
2021/05/15 01:08:30;;;;;;;0.15;0.15;;;9.90;99.90;;;;;;5069698;28;20035;-84
2021/05/15 01:10:56;;;;;;;0.00;0.00;;;9.80;99.90;;;;;;5083174;28;20031;-83
2021/05/15 01:13:31;;;;;;;0.10;0.10;;;9.80;99.90;;;;;;5075889;28;20033;-83
2021/05/15 01:15:58;;;;;;;0.10;0.10;;;9.80;1.00;;;;;;5068268;28;20074;-84
2021/05/15 01:18:27;;;;;;;0.17;0.17;;;9.60;41.50;;;;;;5067972;28;20024;-83
2021/05/15 01:21:01;;;;;;;0.10;0.10;;;9.40;99.90;;;;;;5066726;28;20447;-83
2021/05/15 01:23:28;;;;;;;0.20;0.20;;;9.30;99.90;;;;;;5070799;28;20070;-83
2021/05/15 01:25:55;;;;;;;0.10;0.10;;;9.40;99.90;;;;;;5084066;28;20107;-83
2021/05/15 01:28:23;;;;;;;0.15;0.15;;;9.40;91.90;;;;;;5079616;28;20427;-83
2021/05/15 01:30:49;;;;;;;0.10;0.10;;;9.30;1.00;;;;;;5079861;28;20036;-84
2021/05/15 01:33:16;;;;;;;0.20;0.20;;;9.20;99.90;;;;;;5081024;28;20036;-83
2021/05/15 01:35:42;;;;;;;0.10;0.10;;;9.40;99.90;;;;;;5080910;28;20524;-84
2021/05/15 01:38:09;;;;;;;0.10;0.10;;;9.40;99.90;;;;;;5080780;28;20032;-84
2021/05/15 01:40:39;;;;;;;0.38;0.38;;;9.30;99.90;;;;;;5074053;28;20029;-84
2021/05/15 01:43:20;;;;;;;0.45;0.45;;;9.30;99.90;;;;;;5075529;28;20052;-83
2021/05/15 01:45:47;;;;;;;0.13;0.13;;;9.40;99.90;;;;;;5073547;28;20547;-83
2021/05/15 01:48:17;;;;;;;;;;;9.40;99.90;;;;;;5074646;28;20029;-83
2021/05/15 01:51:00;;;;;;;0.00;0.00;;;9.40;99.90;;;;;;5086633;28;19910;-83
2021/05/15 01:53:31;;;;;;;0.10;0.10;;;9.20;99.90;;;;;;5095609;28;20478;-83
2021/05/15 01:55:59;;;;;;;0.10;0.10;;;9.20;99.90;;;;;;5094934;28;20808;-83
2021/05/15 01:58:27;;;;;;;1.45;0.80;;;9.30;99.90;;;;;;5090710;28;20127;-83
2021/05/15 02:00:55;;;;;;;0.10;0.10;;;9.50;99.90;;;;;;5081647;28;20027;-83
2021/05/15 02:03:22;;;;;;;0.08;0.08;;;9.30;99.90;;;;;;5078271;28;20027;-83
2021/05/15 02:05:49;;;;;;;3.47;0.50;;;9.30;99.90;;;;;;5088000;28;20039;-84
2021/05/15 02:08:20;;;;;;;0.10;0.10;;;9.40;99.90;;;;;;5082045;28;20135;-83
2021/05/15 02:10:56;;;;;;;0.20;0.20;;;9.30;99.90;;;;;;5077826;28;20126;-83
2021/05/15 02:13:33;;;;;;;0.10;0.10;;;9.30;99.90;;;;;;5090733;28;20044;-83
2021/05/15 02:16:01;;;;;;;0.13;0.13;;;9.30;99.90;;;;;;5081055;28;20036;-83
2021/05/15 02:18:28;;;;;;;2.47;0.52;;;9.20;99.90;;;;;;5077382;28;20031;-83
2021/05/15 02:20:55;;;;;;;0.10;0.10;;;9.20;99.90;;;;;;5093398;28;20031;-84
2021/05/15 02:23:22;;;;;;;0.40;0.40;;;9.30;1.00;;;;;;5074957;28;20041;-84
2021/05/15 02:25:49;;;;;;;0.00;0.00;;;9.30;99.90;;;;;;5073959;28;20744;-84
2021/05/15 02:28:18;;;;;;;;;;;9.30;99.90;;;;;;5083469;28;20051;-84
2021/05/15 02:30:46;;;;;;;0.05;0.05;;;9.40;99.90;;;;;;5089962;28;19912;-84
2021/05/15 02:33:12;;;;;;;;;;;9.40;1.00;;;;;;5081952;28;20445;-84
2021/05/15 02:35:39;;;;;;;0.10;0.10;;;9.40;99.90;;;;;;5082644;28;19907;-84
2021/05/15 02:38:10;;;;;;;0.00;0.00;;;9.30;99.90;;;;;;5074322;28;20039;-84
2021/05/15 02:40:38;;;;;;;0.20;0.20;;;9.30;43.20;;;;;;5085037;28;20067;-83
2021/05/15 02:43:04;;;;;;;0.15;0.15;;;9.30;99.90;;;;;;5074322;28;20021;-83
2021/05/15 02:45:31;;;;;;;0.20;0.20;;;9.20;99.90;;;;;;5071306;28;20024;-84
2021/05/15 02:47:58;;;;;;;;;;;9.30;99.90;;;;;;5074077;28;20037;-83
2021/05/15 02:50:26;;;;;;;0.30;0.30;;;9.40;99.90;;;;;;5082659;28;19916;-84
2021/05/15 02:52:53;;;;;;;0.20;0.20;;;9.30;99.90;;;;;;5078779;28;20037;-83
2021/05/15 02:55:22;;;;;;;0.08;0.08;;;9.20;99.90;;;;;;5086038;28;20090;-83
2021/05/15 02:57:50;;;;;;;0.22;0.22;;;9.30;99.90;;;;;;5081505;28;20020;-83
2021/05/15 03:00:23;;;;;;;0.03;0.03;;;9.30;99.90;;;;;;5071292;28;20036;-84
2021/05/15 03:02:50;;;;;;;0.00;0.00;;;9.20;99.90;;;;;;5062557;28;20020;-84
2021/05/15 03:05:20;;;;;;;0.30;0.20;;;9.20;99.90;;;;;;5069784;28;20035;-84
2021/05/15 03:07:48;;;;;;;0.10;0.10;;;9.10;99.90;;;;;;5086079;28;20039;-84
2021/05/15 03:10:15;;;;;;;0.10;0.10;;;9.10;99.90;;;;;;5076487;28;20105;-84
2021/05/15 03:12:42;;;;;;;0.10;0.10;;;9.10;99.90;;;;;;5081056;28;20423;-83
2021/05/15 03:15:12;;;;;;;0.10;0.10;;;9.10;99.90;;;;;;5073066;28;20056;-83
2021/05/15 03:17:42;;;;;;;0.10;0.10;;;9.10;99.90;;;;;;5084745;28;20066;-83
2021/05/15 03:20:10;;;;;;;0.00;0.00;;;9.00;99.90;;;;;;5081320;28;20769;-84
2021/05/15 03:22:37;;;;;;;0.20;0.20;;;9.00;99.90;;;;;;5077030;28;20025;-84
2021/05/15 03:25:07;;;;;;;0.10;0.10;;;9.00;99.90;;;;;;5073050;28;20040;-84
2021/05/15 03:27:34;;;;;;;0.10;0.10;;;9.00;99.90;;;;;;5090435;28;20483;-84
2021/05/15 03:30:01;;;;;;;0.10;0.10;;;9.10;99.90;;;;;;5086798;28;20442;-87
2021/05/15 03:32:27;;;;;;;;;;;9.30;99.90;;;;;;5087246;28;20407;-88
2021/05/15 03:34:54;;;;;;;0.25;0.25;;;9.20;99.90;;;;;;5077976;28;20398;-88
2021/05/15 03:37:20;;;;;;;0.10;0.10;;;9.30;99.90;;;;;;5088646;28;20456;-84
2021/05/15 03:39:55;;;;;;;0.20;0.20;;;9.40;99.90;;;;;;5086593;28;20032;-84
2021/05/15 03:42:30;;;;;;;0.00;0.00;;;9.20;99.90;;;;;;5079891;28;20080;-85
2021/05/15 03:44:57;;;;;;;0.10;0.10;;;9.10;21.40;;;;;;5081280;28;20038;-85
2021/05/15 03:47:25;;;;;;;0.00;0.00;;;9.20;99.90;;;;;;5085126;28;20028;-84
2021/05/15 03:49:52;;;;;;;0.10;0.10;;;9.40;99.90;;;;;;5062242;28;20081;-84
2021/05/15 03:52:19;;;;;;;0.10;0.10;;;9.40;99.40;;;;;;5078087;28;20033;-84
2021/05/15 03:54:46;;;;;;;0.10;0.10;;;9.40;99.90;;;;;;5069485;28;20510;-84
2021/05/15 03:57:13;;;;;;;0.10;0.10;;;9.40;25.10;;;;;;5085754;28;20381;-84
2021/05/15 03:59:41;;;;;;;0.17;0.17;;;9.50;99.90;;;;;;5084070;28;20504;-83
2021/05/15 04:02:08;;;;;;;0.00;0.00;;;9.50;99.90;;;;;;5075796;28;20569;-84
2021/05/15 04:04:37;;;;;;;0.22;0.15;;;9.70;99.90;;;;;;5073330;28;20016;-84
2021/05/15 04:07:05;;;;;;;0.17;0.17;;;10.90;99.90;;;;;;5073285;28;20024;-84
2021/05/15 04:09:32;;;;;;;0.20;0.20;;;11.70;99.90;;;;;;5081294;28;20032;-84
2021/05/15 04:11:59;;;;;;;0.20;0.20;;;11.40;99.90;;;;;;5069241;28;20032;-84
2021/05/15 04:15:34;;;;;;;0.10;0.10;;;11.20;99.90;;;;;;5084326;28;20056;-84
2021/05/15 04:17:32;;;;;;;0.00;0.00;;;11.10;99.90;;;;;;5064675;28;20037;-84
2021/05/15 04:20:00;;;;;;;0.35;0.35;;;11.00;99.90;;;;;;5056802;28;20028;-84
2021/05/15 04:22:28;;;;;;;0.05;0.05;;;10.90;99.90;;;;;;5083775;28;20062;-84
2021/05/15 04:24:57;;;;;;;0.05;0.05;;;11.00;99.90;;;;;;5074152;28;20654;-84
2021/05/15 04:27:25;;;;;;;0.15;0.15;;;10.80;99.90;;;;;;5077084;28;20027;-84
2021/05/15 04:29:54;;;;;;;0.10;0.10;;;10.70;99.90;;;;;;5085423;28;20119;-84
2021/05/15 04:32:21;;;;;;;0.00;0.00;;;10.90;99.90;;;;;;5070764;28;20149;-84
2021/05/15 04:34:47;;;;;;;;;;;10.90;99.90;;;;;;5086367;28;20028;-84
2021/05/15 04:37:14;;;;;;;0.85;0.57;;;10.90;99.90;;;;;;5075150;28;19907;-84
2021/05/15 04:39:41;;;;;;;0.10;0.10;;;11.00;99.90;;;;;;5079550;28;20503;-84
2021/05/15 04:42:07;;;;;;;0.10;0.10;;;11.00;99.90;;;;;;5076243;28;20060;-85
2021/05/15 04:44:34;;;;;;;0.10;0.10;;;11.10;99.90;;;;;;5068793;28;20036;-84
2021/05/15 04:47:01;;;;;;;0.00;0.00;;;11.10;99.90;;;;;;5068328;28;20016;-86
2021/05/15 04:49:28;;;;;;;0.00;0.00;;;11.30;99.90;;;;;;5075356;28;20024;-85
2021/05/15 04:51:55;;;;;;;;;;;11.50;99.90;;;;;;5081993;28;20059;-86
2021/05/15 04:54:21;;;;;;;0.00;0.00;;;11.30;99.90;;;;;;5075167;28;19916;-87
2021/05/15 04:56:48;;;;;;;0.00;0.00;;;11.40;99.90;;;;;;5084287;28;20115;-86
2021/05/15 04:59:15;;;;;;;0.00;0.00;;;11.30;99.90;;;;;;5071590;28;20024;-86
2021/05/15 05:01:41;;;;;;;0.00;0.00;;;11.30;99.90;;;;;;5077721;28;20032;-86
2021/05/15 05:04:08;;;;;;;0.15;0.15;;;11.20;99.90;;;;;;5088674;28;20028;-88
2021/05/15 05:06:35;;;;;;;0.40;0.40;;;11.40;99.90;;;;;;5074632;28;20028;-87
2021/05/15 05:09:01;;;;;;;0.20;0.20;;;11.40;99.90;;;;;;5069425;28;20032;-87
2021/05/15 05:11:28;;;;;;;1.30;1.30;;;11.40;99.90;;;;;;5085235;28;20067;-87
2021/05/15 05:13:54;;;;;;;0.10;0.10;;;11.30;99.90;;;;;;5069284;28;20052;-87
2021/05/15 05:16:25;;;;;;;0.95;0.57;;;11.40;99.90;;;;;;5077987;28;20051;-87
2021/05/15 05:18:58;;;;;;;0.10;0.10;;;11.30;99.90;;;;;;5087480;28;20461;-87
2021/05/15 05:21:25;;;;;;;0.10;0.10;;;11.40;99.90;;;;;;5068310;28;20028;-88
2021/05/15 05:23:51;;;;;;;0.20;0.20;;;11.40;99.90;;;;;;5074590;28;20118;-87
2021/05/15 05:26:17;;;;;;;0.45;0.45;;;11.40;99.90;;;;;;5078839;28;20028;-86
2021/05/15 05:28:49;;;;;;;0.43;0.43;;;11.40;99.90;;;;;;5079344;28;20115;-85
2021/05/15 05:31:15;;;;;;;0.00;0.00;;;11.30;99.90;;;;;;5070745;28;20039;-86
2021/05/15 05:33:41;;;;;;;0.10;0.10;;;11.40;99.90;;;;;;5084868;28;20024;-85
2021/05/15 05:36:08;;;;;;;2.55;1.65;;;11.40;99.90;;;;;;5069948;28;20036;-86
2021/05/15 05:38:34;;;;;;;0.10;0.10;;;11.40;99.90;;;;;;5080836;28;20468;-85
2021/05/15 05:41:00;;;;;;;0.00;0.00;;;11.50;99.90;;;;;;5058764;28;20037;-87
2021/05/15 05:43:25;;;;;;;0.30;0.30;;;11.50;99.90;;;;;;5068321;28;20093;-85
2021/05/15 05:45:51;;;;;;;0.10;0.10;;;11.40;99.90;;;;;;5072494;28;20494;-85
2021/05/15 05:48:18;;;;;;;0.15;0.15;;;11.50;99.90;;;;;;5066466;28;20024;-86
2021/05/15 05:50:45;;;;;;;0.10;0.10;;;11.50;99.90;;;;;;5049083;28;20022;-84
2021/05/15 05:53:11;;;;;;;0.00;0.00;;;11.60;99.90;;;;;;5048690;28;20092;-85
2021/05/15 05:55:37;;;;;;;0.00;0.00;;;11.60;99.90;;;;;;5047082;28;20040;-85
2021/05/15 05:58:04;;;;;;;5.33;2.43;;;11.60;99.90;;;;;;5048576;28;20036;-85
2021/05/15 06:00:31;;;;;;;0.20;0.20;;;11.60;99.90;;;;;;5046927;28;20294;-85
2021/05/15 06:02:58;;;;;;;0.40;0.40;;;11.60;99.90;;;;;;5072848;28;20025;-84
2021/05/15 06:05:25;;;;;;;0.20;0.20;;;11.60;99.90;;;;;;5072854;28;20021;-84
2021/05/15 06:07:51;;;;;;;0.00;0.00;;;11.60;99.90;;;;;;5082984;28;20059;-84
2021/05/15 06:10:17;;;;;;;1.55;0.75;;;11.40;99.90;;;;;;5076006;28;20495;-84
2021/05/15 06:12:43;;;;;;;0.00;0.00;;;11.40;99.90;;;;;;5079702;28;20023;-84
2021/05/15 06:15:09;;;;;;;1.50;0.88;;;11.60;99.90;;;;;;5079127;28;20059;-84
2021/05/15 06:17:36;;;;;;;0.50;0.50;;;11.60;99.90;;;;;;5080047;28;20028;-85
2021/05/15 06:20:03;;;;;;;0.05;0.05;;;11.70;99.90;;;;;;5080646;28;20044;-85
2021/05/15 06:22:29;;;;;;;0.17;0.17;;;11.60;99.90;;;;;;5082221;28;20038;-85
2021/05/15 06:24:55;;;;;;;0.20;0.20;;;11.60;99.90;;;;;;5081577;28;20845;-84
2021/05/15 06:27:21;;;;;;;0.10;0.10;;;11.70;99.90;;;;;;5078706;28;20040;-85
2021/05/15 06:29:47;;;;;;;0.00;0.00;;;11.70;99.90;;;;;;5080222;28;20020;-85
2021/05/15 06:32:13;;;;;;;0.10;0.10;;;11.70;99.90;;;;;;5070118;28;20028;-84
2021/05/15 06:34:40;;;;;;;0.20;0.20;;;11.60;99.90;;;;;;5070526;28;20082;-85
2021/05/15 06:37:07;;;;;;;0.00;0.00;;;11.70;99.90;;;;;;5080067;28;20097;-85
2021/05/15 06:39:33;;;;;;;0.43;0.43;;;11.70;99.90;;;;;;5077518;28;20071;-85
2021/05/15 06:41:59;;;;;;;0.10;0.10;;;11.70;99.90;;;;;;5086309;28;20047;-84
2021/05/15 06:44:25;;;;;;;0.10;0.10;;;11.80;99.90;;;;;;5071694;28;20044;-85
2021/05/15 06:46:51;;;;;;;0.20;0.20;;;11.80;99.90;;;;;;5076802;28;20034;-85
2021/05/15 06:49:17;;;;;;;0.00;0.00;;;11.90;99.90;;;;;;5083332;28;20130;-85
2021/05/15 06:51:43;;;;;;;0.10;0.10;;;11.80;99.90;;;;;;5077947;28;20107;-85
2021/05/15 06:54:09;;;;;;;0.10;0.10;;;11.90;99.90;;;;;;5081190;28;20058;-85
2021/05/15 06:56:35;;;;;;;0.10;0.10;;;12.00;99.90;;;;;;5076550;28;20016;-86
2021/05/15 06:59:01;;;;;;;0.10;0.10;;;11.90;99.90;;;;;;5070244;28;20073;-86
2021/05/15 07:01:27;;;;;;;0.10;0.10;;;11.90;99.90;;;;;;5082464;28;20124;-86
2021/05/15 07:03:54;;;;;;;0.10;0.10;;;11.80;99.90;;;;;;5077008;28;20051;-86
2021/05/15 07:06:19;;;;;;;0.17;0.17;;;11.80;99.90;;;;;;5080765;28;20024;-86
2021/05/15 07:08:48;;;;;;;0.10;0.10;;;11.90;99.90;;;;;;5077479;28;20549;-83
2021/05/15 07:11:14;;;;;;;0.60;0.60;;;11.90;99.90;;;;;;5071540;28;20024;-84
2021/05/15 07:13:40;;;;;;;0.15;0.15;;;12.00;99.90;;;;;;5070331;28;20055;-84
2021/05/15 07:16:06;;;;;;;0.32;0.32;;;12.00;99.90;;;;;;5068837;28;20062;-85
2021/05/15 07:18:32;;;;;;;0.10;0.10;;;11.90;99.90;;;;;;5073995;28;20464;-85
2021/05/15 07:20:58;;;;;;;0.10;0.10;;;12.00;99.90;;;;;;5080882;28;20119;-85
2021/05/15 07:23:23;;;;;;;0.10;0.10;;;11.90;99.90;;;;;;5081026;28;20452;-85
2021/05/15 07:25:49;;;;;;;0.10;0.10;;;12.10;99.90;;;;;;5082135;28;20099;-86
2021/05/15 07:28:15;;;;;;;0.00;0.00;;;12.10;99.90;;;;;;5075518;28;20043;-84
2021/05/15 07:30:41;;;;;;;0.00;0.00;;;12.10;99.90;;;;;;5073168;28;20635;-84
2021/05/15 07:33:07;;;;;;;0.10;0.10;;;12.20;99.90;;;;;;5074961;28;20081;-84
2021/05/15 07:35:34;;;;;;;0.20;0.20;;;12.20;99.90;;;;;;5062633;28;20280;-85
2021/05/15 07:38:01;;;;;;;0.00;0.00;;;12.20;99.90;;;;;;5057690;28;20056;-85
2021/05/15 07:40:27;;;;;;;0.10;0.10;;;12.30;99.90;;;;;;5059417;28;20033;-85
2021/05/15 07:42:54;;;;;;;0.03;0.03;;;12.40;99.90;;;;;;5059756;28;20077;-85
2021/05/15 07:45:20;;;;;;;0.00;0.00;;;12.30;99.90;;;;;;5055486;28;20029;-85
2021/05/15 07:47:47;;;;;;;0.10;0.10;;;12.40;99.90;;;;;;5062312;28;20111;-85
2021/05/15 07:50:17;;;;;;;0.20;0.20;;;12.40;99.90;;;;;;5072042;28;20043;-85
2021/05/15 07:52:43;;;;;;;0.00;0.00;;;12.50;99.90;;;;;;5067301;28;20369;-85
2021/05/15 07:55:10;;;;;;;0.28;0.28;;;12.40;99.90;;;;;;5071752;28;20074;-85
2021/05/15 07:57:36;;;;;;;0.15;0.15;;;12.40;99.90;;;;;;5078580;28;20107;-85
2021/05/15 08:00:06;;;;;;;0.10;0.10;;;12.40;99.90;;;;;;5075035;28;20073;-85
2021/05/15 08:02:35;;;;;;;0.00;0.00;;;12.40;99.90;;;;;;5074309;28;20024;-85
2021/05/15 08:05:01;;;;;;;0.03;0.03;;;12.40;99.90;;;;;;5078156;28;20075;-84
2021/05/15 08:07:29;;;;;;;0.10;0.10;;;12.30;99.90;;;;;;5077443;28;20027;-85
2021/05/15 08:09:56;;;;;;;0.08;0.08;;;12.40;99.90;;;;;;5072617;28;20071;-85
2021/05/15 08:12:24;;;;;;;0.10;0.10;;;12.50;99.90;;;;;;5070957;28;20024;-85
2021/05/15 08:14:52;;;;;;;0.20;0.20;;;12.60;99.90;;;;;;5064571;28;20090;-85
2021/05/15 08:17:21;;;;;;;0.10;0.10;;;12.50;99.90;;;;;;5068411;28;20041;-85
2021/05/15 08:19:47;;;;;;;0.10;0.10;;;12.40;99.90;;;;;;5059620;28;20112;-85
2021/05/15 08:22:13;;;;;;;0.00;0.00;;;12.60;99.90;;;;;;5076947;28;20028;-85
2021/05/15 08:24:39;;;;;;;0.10;0.10;;;12.60;99.90;;;;;;5072344;28;20580;-86
2021/05/15 08:27:05;;;;;;;0.00;0.00;;;12.50;99.90;;;;;;5078852;28;20024;-85
2021/05/15 08:29:34;;;;;;;0.10;0.10;;;12.60;99.90;;;;;;5077187;28;20028;-85
2021/05/15 08:32:01;;;;;;;0.10;0.10;;;12.60;99.90;;;;;;5075646;28;20531;-86
2021/05/15 08:34:27;;;;;;;0.65;0.32;;;12.70;99.90;;;;;;5071199;28;20060;-86
2021/05/15 08:36:54;;;;;;;0.10;0.10;;;12.60;99.90;;;;;;5076080;28;20028;-86
2021/05/15 08:39:24;;;;;;;0.00;0.00;;;12.70;99.90;;;;;;5076379;28;20036;-85
2021/05/15 08:41:50;;;;;;;0.00;0.00;;;12.60;99.90;;;;;;5080788;28;20100;-85
2021/05/15 08:44:21;;;;;;;0.10;0.10;;;12.70;99.90;;;;;;5079421;28;20111;-85
2021/05/15 08:46:50;;;;;;;0.00;0.00;;;12.80;99.90;;;;;;5079362;28;20016;-85
2021/05/15 08:49:21;;;;;;;0.10;0.10;;;12.80;99.90;;;;;;5072835;28;20033;-85
2021/05/15 08:51:49;;;;;;;0.08;0.08;;;12.80;99.90;;;;;;5080042;28;20495;-85
2021/05/15 08:54:16;;;;;;;0.03;0.03;;;12.80;99.90;;;;;;5076956;28;20012;-85
2021/05/15 08:56:42;;;;;;;0.10;0.10;;;12.80;99.90;;;;;;5082199;28;20031;-85
2021/05/15 08:59:11;;;;;;;0.10;0.10;;;12.80;99.90;;;;;;5076893;28;20031;-86
2021/05/15 09:01:38;;;;;;;0.00;0.00;;;12.90;99.90;;;;;;5073658;28;20282;-84
2021/05/15 09:04:07;;;;;;;0.10;0.10;;;12.70;99.90;;;;;;5068111;28;20373;-84
2021/05/15 09:06:34;;;;;;;0.10;0.10;;;12.70;99.90;;;;;;5058832;28;20119;-82
2021/05/15 09:09:00;;;;;;;0.08;0.08;;;12.80;99.90;;;;;;5074777;28;20024;-85
2021/05/15 09:11:25;;;;;;;0.10;0.10;;;12.90;99.90;;;;;;5075579;28;20089;-85
2021/05/15 09:13:55;;;;;;;0.08;0.08;;;13.00;99.90;;;;;;5071763;28;20048;-85
2021/05/15 09:16:22;;;;;;;0.10;0.10;;;13.00;99.90;;;;;;5074748;28;20785;-85
2021/05/15 09:18:48;;;;;;;0.00;0.00;;;13.00;99.90;;;;;;5079366;28;20507;-86
2021/05/15 09:21:23;;;;;;;0.10;0.10;;;13.20;99.90;;;;;;5078125;28;20025;-84
2021/05/15 09:23:51;;;;;;;0.00;0.00;;;13.10;99.90;;;;;;5068465;28;20113;-85
2021/05/15 09:26:23;;;;;;;0.10;0.10;;;13.10;99.90;;;;;;5065050;28;20020;-86
2021/05/15 09:28:54;;;;;;;0.00;0.00;;;13.40;99.90;;;;;;5073483;28;20476;-85
2021/05/15 09:31:26;;;;;;;0.15;0.15;;;13.70;99.90;;;;;;5060229;28;20052;-86
2021/05/15 09:33:55;;;;;;;0.10;0.10;;;13.70;99.90;;;;;;5074723;28;20020;-86
2021/05/15 09:36:27;;;;;;;0.00;0.00;;;13.60;99.90;;;;;;5068119;28;20197;-86
2021/05/15 09:39:12;;;;;;;0.10;0.10;;;13.70;99.90;;;;;;5065953;28;20072;-86
2021/05/15 09:41:40;;;;;;;0.00;0.00;;;13.60;99.90;;;;;;5062018;28;20033;-87
2021/05/15 09:44:09;;;;;;;0.10;0.10;;;13.70;99.90;;;;;;5058002;28;20796;-87
2021/05/15 09:46:37;;;;;;;0.10;0.10;;;13.80;99.90;;;;;;5065705;28;20101;-87
2021/05/15 09:49:04;;;;;;;0.00;0.00;;;13.90;99.90;;;;;;5067072;28;20048;-86
2021/05/15 09:51:31;;;;;;;0.10;0.10;;;14.00;99.90;;;;;;5064361;28;20207;-87
2021/05/15 09:54:15;;;;;;;0.50;0.50;;;13.80;99.90;;;;;;5066670;28;20056;-85
2021/05/15 09:56:40;;;;;;;0.10;0.10;;;13.90;99.90;;;;;;5063386;28;20047;-86
2021/05/15 09:59:07;;;;;;;0.10;0.10;;;13.70;99.90;;;;;;5066781;28;20495;-86
2021/05/15 10:01:44;;;;;;;0.10;0.10;;;13.80;99.90;;;;;;5067022;28;20029;-86
2021/05/15 10:04:11;;;;;;;0.00;0.00;;;13.90;99.90;;;;;;5060221;28;20021;-86
2021/05/15 10:06:50;;;;;;;0.05;0.05;;;14.20;99.90;;;;;;5071946;28;20028;-85
2021/05/15 10:09:27;;;;;;;0.10;0.10;;;14.00;99.90;;;;;;5076799;28;20028;-85
2021/05/15 10:11:54;;;;;;;0.03;0.03;;;13.90;99.90;;;;;;5075949;28;20504;-83
2021/05/15 10:14:21;;;;;;;0.00;0.00;;;14.10;99.90;;;;;;5082716;28;20048;-82
2021/05/15 10:16:47;;;;;;;0.00;0.00;;;13.90;99.90;;;;;;5072266;28;20095;-83
2021/05/15 10:19:14;;;;;;;0.10;0.10;;;13.90;99.90;;;;;;5079929;28;20099;-83
2021/05/15 10:21:40;;;;;;;;;;;14.00;99.90;;;;;;5080995;28;20296;-83
2021/05/15 10:24:15;;;;;;;0.10;0.10;;;14.10;99.90;;;;;;5075317;28;20419;-82
2021/05/15 10:26:41;;;;;;;0.10;0.10;;;14.30;99.90;;;;;;5084568;28;20162;-83
2021/05/15 10:29:07;;;;;;;0.30;0.30;;;14.30;99.90;;;;;;5079611;28;20099;-83
2021/05/15 10:31:47;;;;;;;0.10;0.10;;;14.50;99.90;;;;;;5071687;28;20494;-84
2021/05/15 10:34:14;;;;;;;0.10;0.10;;;14.40;99.90;;;;;;5070815;28;20518;-84
2021/05/15 10:36:50;;;;;;;0.10;0.10;;;14.70;99.90;;;;;;5074178;28;20082;-83
2021/05/15 10:39:33;;;;;;;0.10;0.10;;;14.70;99.90;;;;;;5075978;28;20040;-84
2021/05/15 10:42:01;;;;;;;0.10;0.10;;;14.70;99.90;;;;;;5073424;28;20554;-84
2021/05/15 10:44:39;;;;;;;0.10;0.10;;;14.80;99.90;;;;;;5075237;28;20053;-84
2021/05/15 10:47:13;;;;;;;0.10;0.10;;;14.80;99.90;;;;;;5076370;28;20420;-84
2021/05/15 10:49:39;;;;;;;0.00;0.00;;;14.80;99.90;;;;;;5065407;28;20036;-84
2021/05/15 10:52:13;;;;;;;0.22;0.22;;;14.80;99.90;;;;;;5076655;28;20024;-84
2021/05/15 10:54:44;;;;;;;0.00;0.00;;;15.10;99.90;;;;;;5066329;28;20099;-84
2021/05/15 10:57:20;;;;;;;0.40;0.40;;;15.20;99.90;;;;;;5074754;28;20063;-83
2021/05/15 11:00:01;;;;;;;0.10;0.10;;;15.10;99.90;;;;;;5074782;28;20045;-83
2021/05/15 11:02:36;;;;;;;0.10;0.10;;;15.00;99.90;;;;;;5066938;28;20496;-83
2021/05/15 11:05:12;;;;;;;0.10;0.10;;;15.20;99.90;;;;;;5074418;28;20055;-83
2021/05/15 11:07:39;;;;;;;0.15;0.15;;;15.20;99.90;;;;;;5074778;28;20100;-83
2021/05/15 11:10:11;;;;;;;0.00;0.00;;;15.20;99.90;;;;;;5077215;28;20041;-83
2021/05/15 11:12:43;;;;;;;0.20;0.20;;;15.30;99.90;;;;;;5074823;28;20111;-83
2021/05/15 11:15:14;;;;;;;0.00;0.00;;;15.40;99.90;;;;;;5073515;28;20052;-84
2021/05/15 11:17:40;;;;;;;0.10;0.10;;;15.60;99.90;;;;;;5076811;28;20056;-83
2021/05/15 11:20:09;;;;;;;0.43;0.28;;;15.30;99.90;;;;;;5071858;28;20109;-82
2021/05/15 11:22:44;;;;;;;0.20;0.20;;;15.30;99.90;;;;;;5060796;28;20048;-82
2021/05/15 11:25:29;;;;;;;0.10;0.10;;;15.40;99.90;;;;;;5062737;28;20028;-85
2021/05/15 11:27:59;;;;;;;0.10;0.10;;;15.70;99.90;;;;;;5078054;28;20112;-83
2021/05/15 11:30:31;;;;;;;0.90;0.90;;;15.70;99.90;;;;;;5075627;28;20038;-84
2021/05/15 11:32:58;;;;;;;0.10;0.10;;;15.70;99.90;;;;;;5074715;28;20114;-84
2021/05/15 11:35:25;;;;;;;0.35;0.32;;;15.70;99.90;;;;;;5062341;28;20033;-85
2021/05/15 11:38:04;;;;;;;2.38;0.43;;;15.80;99.90;;;;;;5060602;28;20021;-85
2021/05/15 11:40:36;;;;;;;0.10;0.10;;;16.00;99.90;;;;;;5057514;28;20083;-85
2021/05/15 11:43:02;;;;;;;0.05;0.05;;;16.30;99.90;;;;;;5072591;28;20111;-85
2021/05/15 11:45:32;;;;;;;0.07;0.07;;;16.60;99.90;;;;;;5067435;28;20029;-84
2021/05/15 11:48:21;;;;;;;0.32;0.32;;;16.30;99.90;;;;;;5070181;28;20282;-85
2021/05/15 11:50:58;;;;;;;0.10;0.10;;;16.20;99.90;;;;;;5070321;28;20792;-84
2021/05/15 11:53:25;;;;;;;;;;;16.10;99.90;;;;;;5073630;28;20408;-85
2021/05/15 11:55:51;;;;;;;0.10;0.10;;;16.50;99.90;;;;;;5078057;28;19912;-85
2021/05/15 11:58:18;;;;;;;0.10;0.10;;;16.50;99.90;;;;;;5080093;28;20044;-85
2021/05/15 12:00:45;;;;;;;0.10;0.10;;;16.40;99.90;;;;;;5067382;28;20032;-84
2021/05/15 12:03:11;;;;;;;0.20;0.20;;;16.90;99.90;;;;;;5084014;28;20028;-85
2021/05/15 12:05:37;;;;;;;0.10;0.10;;;16.70;99.90;;;;;;5075183;28;20161;-85
2021/05/15 12:08:12;;;;;;;0.20;0.20;;;16.50;99.90;;;;;;5060431;28;20048;-84
2021/05/15 12:10:38;;;;;;;0.45;0.45;;;16.10;99.90;;;;;;5068499;28;20132;-84
2021/05/15 12:13:04;;;;;;;0.47;0.47;;;16.00;99.90;;;;;;5067099;28;20029;-86
2021/05/15 12:15:31;;;;;;;0.30;0.30;;;16.20;99.90;;;;;;5073426;28;20034;-84
2021/05/15 12:18:01;;;;;;;3.60;3.30;;;16.70;99.90;;;;;;5080665;28;20105;-86
2021/05/15 12:20:37;;;;;;;3.90;2.30;;;16.90;99.90;;;;;;5073123;28;20033;-85
2021/05/15 12:23:11;;;;;;;1.05;0.77;;;16.60;99.90;;;;;;5075266;28;20063;-84
2021/05/15 12:25:39;;;;;;;4.40;2.08;;;16.50;99.90;;;;;;5048792;28;20128;-84
2021/05/15 12:28:17;;;;;;;0.55;0.55;;;16.30;99.90;;;;;;5049700;28;20025;-84
2021/05/15 12:30:43;;;;;;;3.00;0.63;;;16.20;99.90;;;;;;5048433;28;20040;-84
2021/05/15 12:33:09;;;;;;;0.22;0.08;;;16.10;99.90;;;;;;5048482;28;20033;-84
2021/05/15 12:35:35;;;;;;;0.40;0.40;;;16.20;99.90;;;;;;5049180;28;20037;-84
2021/05/15 12:38:07;;;;;;;0.90;0.90;;;16.40;99.90;;;;;;5048516;28;20033;-84
2021/05/15 12:40:33;;;;;;;0.55;0.52;;;16.10;99.90;;;;;;5049336;28;20871;-84
2021/05/15 12:43:10;;;;;;;0.10;0.10;;;16.20;99.90;;;;;;5049616;28;20032;-83
2021/05/15 12:45:38;;;;;;;0.00;0.00;;;16.20;99.90;;;;;;5047732;28;20392;-84
2021/05/15 12:48:39;;;;;;;0.40;0.40;;;16.10;99.90;;;;;;5048074;28;20553;-84
2021/05/15 12:51:11;;;;;;;0.22;0.22;;;16.10;99.90;;;;;;5066640;28;20388;-83
2021/05/15 12:53:37;;;;;;;0.15;0.15;;;15.90;99.90;;;;;;5089137;28;20028;-84
2021/05/15 12:56:03;;;;;;;0.10;0.10;;;15.90;99.90;;;;;;5089607;28;20024;-84
2021/05/15 12:58:29;;;;;;;0.22;0.22;;;16.00;99.90;;;;;;5089436;28;20028;-85
2021/05/15 13:01:03;;;;;;;0.40;0.30;;;16.00;99.90;;;;;;5088114;28;20073;-84